Weather at Stratford Municipal Airport

Public forecast

Using degrees Celsius for public forecast. Weather courtesy of forecast.io.

Closest aviation weather report (METAR) to Stratford Municipal Airport

Closest report is Waterloo Airport, 24.4 nm (45.2 km) E. Retrieved 2020/11/25 03:31 UTC (15 minutes ago):

CYKF 250331Z AUTO 10010G16KT 3SM -SN BKN006 BKN013 OVC027 M00/M01 A3013 RMK SLP218

Closest aviation forecast (TAF) to Stratford Municipal Airport

Closest forecast is Waterloo Airport, 24.4 nm (45.2 km) E. Retrieved 2020-11-25 02:42 UTC (1 hour ago):

TAF CYKF 250138Z 2502/2514 08010KT 6SM -SN OVC020 TEMPO 2502/2503 1SM -SN OVC008 FM250300 11010KT 3/4SM -SN OVC006 TEMPO 2503/2505 3SM -SN OVC015 PROB30 2503/2505 6SM -PL BR FM250500 13008KT 6SM -RASN BR OVC025 TEMPO 2505/2508 2SM -SN OVC015 PROB30 2505/2508 P6SM -PL FM250800 13008KT P6SM BKN025 OVC070 TEMPO 2508/2513 5SM -SHRA BR OVC015 PROB30 2508/2512 P6SM -PL FM251300 19010KT 1SM -RA BR OVC006 RMK FCST BASED ON AUTO OBS NXT FCST BY 250800Z